createdAt,value
2023-01-06T00:01:26.745Z,5.50
2023-01-06T00:03:55.543Z,5.63
2023-01-06T00:06:27.474Z,5.50
2023-01-06T00:08:56.499Z,5.43
2023-01-06T00:11:23.971Z,5.73
2023-01-06T00:13:51.574Z,5.20
2023-01-06T00:16:21.388Z,5.57
2023-01-06T00:18:49.043Z,6.17
2023-01-06T00:21:16.441Z,5.07
2023-01-06T00:23:43.701Z,5.27
2023-01-06T00:26:10.971Z,5.97
2023-01-06T00:28:38.789Z,6.30
2023-01-06T00:31:10.854Z,6.00
2023-01-06T00:33:40.406Z,6.23
2023-01-06T00:36:10.354Z,6.73
2023-01-06T00:38:38.442Z,6.07
2023-01-06T00:41:27.093Z,6.00
2023-01-06T00:43:56.826Z,6.10
2023-01-06T00:46:26.839Z,6.90
2023-01-06T00:49:04.524Z,6.70
2023-01-06T00:51:35.730Z,6.87
2023-01-06T00:54:03.110Z,5.77
2023-01-06T00:56:30.171Z,5.63
2023-01-06T00:58:57.424Z,5.53
2023-01-06T01:01:24.794Z,5.17
2023-01-06T01:03:52.269Z,5.83
2023-01-06T01:06:19.184Z,5.27
2023-01-06T01:08:46.440Z,5.03
2023-01-06T01:11:36.383Z,5.07
2023-01-06T01:14:03.761Z,5.27
2023-01-06T01:16:30.806Z,5.97
2023-01-06T01:18:58.098Z,6.10
2023-01-06T01:21:25.200Z,6.03
2023-01-06T01:23:52.474Z,5.90
2023-01-06T01:26:19.526Z,5.83
2023-01-06T01:28:47.149Z,4.93
2023-01-06T01:31:16.159Z,4.93
2023-01-06T01:33:43.695Z,5.70
2023-01-06T01:36:13.547Z,5.27
2023-01-06T01:38:40.956Z,5.60
2023-01-06T01:41:08.065Z,6.00
2023-01-06T01:43:58.913Z,5.77
2023-01-06T01:46:27.919Z,6.07
2023-01-06T01:48:58.505Z,6.33
2023-01-06T01:51:39.977Z,7.73
2023-01-06T01:54:11.305Z,9.27
2023-01-06T01:56:43.003Z,9.70
2023-01-06T01:59:17.309Z,10.13
2023-01-06T02:01:46.093Z,9.53
2023-01-06T02:04:13.588Z,8.70
2023-01-06T02:06:41.301Z,10.07
2023-01-06T02:09:59.900Z,10.83
2023-01-06T02:12:27.420Z,11.63
2023-01-06T02:14:54.939Z,11.77
2023-01-06T02:17:40.493Z,10.57
2023-01-06T02:20:10.667Z,10.20
2023-01-06T02:22:56.753Z,10.70
2023-01-06T02:25:45.758Z,10.57
2023-01-06T02:28:22.221Z,10.10
2023-01-06T02:31:14.654Z,10.57
2023-01-06T02:33:57.394Z,10.37
2023-01-06T02:36:37.799Z,10.37
2023-01-06T02:39:16.139Z,11.40
2023-01-06T02:41:48.378Z,11.47
2023-01-06T02:44:30.469Z,11.80
2023-01-06T02:47:25.265Z,11.63
2023-01-06T02:50:03.291Z,11.83
2023-01-06T02:52:43.705Z,12.20
2023-01-06T02:55:16.675Z,12.33
2023-01-06T02:57:53.174Z,14.40
2023-01-06T03:00:38.042Z,13.27
2023-01-06T03:03:15.667Z,12.77
2023-01-06T03:05:46.010Z,11.97
2023-01-06T03:08:16.482Z,12.13
2023-01-06T03:10:44.974Z,13.87
2023-01-06T03:13:17.741Z,13.37
2023-01-06T03:15:44.879Z,12.67
2023-01-06T03:18:12.362Z,13.57
2023-01-06T03:20:39.526Z,12.23
2023-01-06T03:23:06.843Z,12.33
2023-01-06T03:25:34.204Z,11.80
2023-01-06T03:28:01.432Z,12.23
2023-01-06T03:30:43.527Z,11.53
2023-01-06T03:33:27.907Z,11.17
2023-01-06T03:36:25.014Z,10.20
2023-01-06T03:39:11.190Z,10.77
2023-01-06T03:42:00.027Z,10.73
2023-01-06T03:44:52.732Z,11.27
2023-01-06T03:47:30.295Z,9.93
2023-01-06T03:50:07.227Z,12.23
2023-01-06T03:52:39.149Z,11.00
2023-01-06T03:55:13.090Z,9.83
2023-01-06T03:57:45.095Z,9.23
2023-01-06T04:00:20.724Z,10.03
2023-01-06T04:02:55.243Z,9.47
2023-01-06T04:05:26.803Z,11.03
2023-01-06T04:07:54.669Z,11.43
2023-01-06T04:10:23.634Z,11.57
2023-01-06T04:12:54.264Z,12.60
2023-01-06T04:15:29.387Z,11.20
2023-01-06T04:17:56.947Z,11.77
2023-01-06T04:20:28.639Z,11.90
2023-01-06T04:23:05.110Z,13.07
2023-01-06T04:25:36.893Z,12.50
2023-01-06T04:28:09.553Z,12.17
2023-01-06T04:30:36.974Z,12.47
2023-01-06T04:33:04.090Z,12.40
2023-01-06T04:35:31.265Z,11.53
2023-01-06T04:38:03.315Z,12.00
2023-01-06T04:40:30.647Z,11.63
2023-01-06T04:43:07.142Z,10.90
2023-01-06T04:45:35.341Z,10.27
2023-01-06T04:48:02.490Z,12.37
2023-01-06T04:50:29.696Z,11.77
2023-01-06T04:52:56.675Z,11.53
2023-01-06T04:55:23.965Z,11.20
2023-01-06T04:57:50.970Z,11.77
2023-01-06T05:00:18.758Z,12.07
2023-01-06T05:02:46.019Z,10.50
2023-01-06T05:05:13.864Z,10.37
2023-01-06T05:07:40.805Z,10.47
2023-01-06T05:10:09.404Z,11.40
2023-01-06T05:12:36.867Z,11.60
2023-01-06T05:15:05.090Z,11.03
2023-01-06T05:17:32.252Z,11.67
2023-01-06T05:19:59.513Z,12.43
2023-01-06T05:22:26.468Z,10.53
2023-01-06T05:24:53.740Z,11.10
2023-01-06T05:27:20.655Z,10.07
2023-01-06T05:29:47.909Z,8.97
2023-01-06T05:32:15.025Z,8.53
2023-01-06T05:34:42.345Z,8.47
2023-01-06T05:37:09.236Z,9.57
2023-01-06T05:39:36.579Z,10.50
2023-01-06T05:42:03.691Z,10.30
2023-01-06T05:44:30.957Z,9.93
2023-01-06T05:46:57.890Z,10.03
2023-01-06T05:49:25.089Z,9.57
2023-01-06T05:51:52.030Z,9.63
2023-01-06T05:54:19.289Z,8.87
2023-01-06T05:56:46.279Z,8.77
2023-01-06T05:59:13.536Z,8.03
2023-01-06T06:01:40.518Z,9.27
2023-01-06T06:04:07.796Z,7.73
2023-01-06T06:06:34.791Z,6.63
2023-01-06T06:09:05.273Z,7.07
2023-01-06T06:11:32.290Z,7.03
2023-01-06T06:13:59.643Z,7.27
2023-01-06T06:16:28.057Z,6.63
2023-01-06T06:18:57.095Z,6.83
2023-01-06T06:21:26.285Z,6.77
2023-01-06T06:23:55.019Z,7.97
2023-01-06T06:26:22.633Z,8.50
2023-01-06T06:28:50.500Z,8.40
2023-01-06T06:31:20.695Z,8.13
2023-01-06T06:33:50.612Z,7.43
2023-01-06T06:36:17.854Z,7.60
2023-01-06T06:38:46.276Z,6.77
2023-01-06T06:41:13.308Z,5.97
2023-01-06T06:43:41.073Z,6.00
2023-01-06T06:46:08.925Z,6.30
2023-01-06T06:48:36.672Z,6.53
2023-01-06T06:51:06.678Z,6.43
2023-01-06T06:53:34.911Z,6.00
2023-01-06T06:56:02.471Z,6.23
2023-01-06T06:58:30.035Z,6.03
2023-01-06T07:00:57.455Z,7.47
2023-01-06T07:03:25.376Z,6.90
2023-01-06T07:05:52.896Z,7.50
2023-01-06T07:08:20.380Z,7.20
2023-01-06T07:10:47.339Z,7.80
2023-01-06T07:13:14.684Z,7.33
2023-01-06T07:15:41.686Z,7.43
2023-01-06T07:18:09.426Z,6.90
2023-01-06T07:20:37.583Z,7.60
2023-01-06T07:23:05.450Z,7.20
2023-01-06T07:25:32.553Z,6.77
2023-01-06T07:28:05.602Z,6.97
2023-01-06T07:30:33.577Z,6.30
2023-01-06T07:33:01.137Z,6.90
2023-01-06T07:35:28.376Z,6.90
2023-01-06T07:37:58.231Z,6.73
2023-01-06T07:40:25.322Z,7.27
2023-01-06T07:42:52.521Z,7.20
2023-01-06T07:45:19.482Z,10.07
2023-01-06T07:47:46.866Z,8.07
2023-01-06T07:50:13.825Z,22.33
2023-01-06T07:52:41.097Z,7.60
2023-01-06T07:55:08.464Z,10.17
2023-01-06T07:57:35.919Z,11.80
2023-01-06T08:00:03.176Z,18.63
2023-01-06T08:02:39.478Z,14.10
2023-01-06T08:05:06.761Z,7.37
2023-01-06T08:07:34.027Z,7.00
2023-01-06T08:10:00.967Z,6.90
2023-01-06T08:12:28.208Z,5.97
2023-01-06T08:14:55.198Z,6.43
2023-01-06T08:17:22.400Z,7.10
2023-01-06T08:19:49.509Z,6.07
2023-01-06T08:22:16.752Z,6.60
2023-01-06T08:24:43.715Z,6.63
2023-01-06T08:27:11.274Z,6.30
2023-01-06T08:29:38.234Z,7.13
2023-01-06T08:32:10.800Z,6.97
2023-01-06T08:34:38.302Z,7.73
2023-01-06T08:37:05.507Z,8.00
2023-01-06T08:39:32.515Z,7.50
2023-01-06T08:41:59.825Z,6.60
2023-01-06T08:44:26.816Z,7.90
2023-01-06T08:46:54.011Z,5.90
2023-01-06T08:49:21.112Z,8.17
2023-01-06T08:51:48.378Z,7.43
2023-01-06T08:54:15.424Z,7.90
2023-01-06T08:56:44.694Z,7.33
2023-01-06T08:59:16.558Z,6.97
2023-01-06T09:01:44.683Z,7.90
2023-01-06T09:04:12.430Z,7.77
2023-01-06T09:06:42.612Z,7.83
2023-01-06T09:09:11.943Z,7.77
2023-01-06T09:11:46.824Z,7.50
2023-01-06T09:14:14.466Z,7.30
2023-01-06T09:16:42.038Z,6.53
2023-01-06T09:19:10.684Z,6.57
2023-01-06T09:21:38.360Z,6.83
2023-01-06T09:24:05.739Z,7.33
2023-01-06T09:26:33.026Z,6.70
2023-01-06T09:28:59.973Z,6.53
2023-01-06T09:31:27.269Z,7.47
2023-01-06T09:33:54.322Z,7.13
2023-01-06T09:36:22.241Z,7.40
2023-01-06T09:38:49.268Z,6.70
2023-01-06T09:41:24.340Z,6.73
2023-01-06T09:43:55.149Z,6.93
2023-01-06T09:46:35.116Z,6.97
2023-01-06T09:49:10.123Z,7.03
2023-01-06T09:51:38.152Z,6.47
2023-01-06T09:54:18.531Z,6.87
2023-01-06T09:56:49.299Z,6.10
2023-01-06T09:59:24.863Z,6.70
2023-01-06T10:01:53.586Z,6.13
2023-01-06T10:04:25.685Z,5.90
2023-01-06T10:06:52.928Z,6.03
2023-01-06T10:09:26.657Z,6.37
2023-01-06T10:12:03.859Z,6.63
2023-01-06T10:14:49.104Z,5.83
2023-01-06T10:17:33.310Z,5.10
2023-01-06T10:20:18.579Z,5.83
2023-01-06T10:23:02.051Z,6.40
2023-01-06T10:25:41.199Z,5.43
2023-01-06T10:28:32.152Z,6.07
2023-01-06T10:31:02.049Z,5.90
2023-01-06T10:33:35.505Z,5.80
2023-01-06T10:36:02.527Z,5.50
2023-01-06T10:38:32.719Z,6.47
2023-01-06T10:41:29.964Z,5.80
2023-01-06T10:43:57.782Z,6.10
2023-01-06T10:46:34.614Z,5.53
2023-01-06T10:49:03.312Z,5.83
2023-01-06T10:51:41.126Z,6.33
2023-01-06T10:54:14.691Z,5.53
2023-01-06T10:56:46.933Z,5.10
2023-01-06T10:59:14.350Z,5.77
2023-01-06T11:01:53.409Z,5.80
2023-01-06T11:04:21.585Z,5.93
2023-01-06T11:06:54.690Z,5.87
2023-01-06T11:09:30.209Z,6.13
2023-01-06T11:12:00.212Z,6.40
2023-01-06T11:14:32.178Z,5.87
2023-01-06T11:17:04.700Z,6.07
2023-01-06T11:19:35.759Z,6.13
2023-01-06T11:22:03.679Z,6.30
2023-01-06T11:24:31.510Z,6.70
2023-01-06T11:27:15.928Z,6.47
2023-01-06T11:29:43.333Z,6.17
2023-01-06T11:32:17.249Z,7.33
2023-01-06T11:35:12.008Z,6.00
2023-01-06T11:37:43.075Z,7.70
2023-01-06T11:40:27.473Z,6.90
2023-01-06T11:42:59.283Z,7.03
2023-01-06T11:45:39.059Z,7.60
2023-01-06T11:48:12.556Z,6.67
2023-01-06T11:50:39.909Z,5.67
2023-01-06T11:53:18.109Z,6.37
2023-01-06T11:56:22.459Z,6.53
2023-01-06T11:58:52.015Z,6.30
2023-01-06T12:01:55.829Z,6.60
2023-01-06T12:04:48.377Z,6.40
2023-01-06T12:07:20.056Z,6.97
2023-01-06T12:09:49.555Z,6.43
2023-01-06T12:12:22.926Z,6.40
2023-01-06T12:14:49.961Z,6.60
2023-01-06T12:17:26.336Z,6.30
2023-01-06T12:20:01.527Z,6.70
2023-01-06T12:22:37.427Z,6.30
2023-01-06T12:25:06.021Z,6.07
2023-01-06T12:27:48.718Z,6.13
2023-01-06T12:30:24.166Z,6.43
2023-01-06T12:32:54.231Z,6.57
2023-01-06T12:35:25.404Z,6.80
2023-01-06T12:38:01.138Z,6.60
2023-01-06T12:40:35.345Z,5.87
2023-01-06T12:43:16.188Z,6.30
2023-01-06T12:45:56.668Z,7.07
2023-01-06T12:48:27.478Z,6.77
2023-01-06T12:51:00.424Z,6.90
2023-01-06T12:53:36.364Z,6.53
2023-01-06T12:56:31.363Z,6.30
2023-01-06T12:59:17.592Z,6.70
2023-01-06T13:02:17.180Z,6.73
2023-01-06T13:04:59.707Z,6.90
2023-01-06T13:07:31.010Z,7.00
2023-01-06T13:10:15.117Z,6.57
2023-01-06T13:13:20.422Z,6.67
2023-01-06T13:15:47.786Z,6.33
2023-01-06T13:18:21.332Z,6.40
2023-01-06T13:21:08.507Z,6.97
2023-01-06T13:23:53.557Z,7.87
2023-01-06T13:26:24.112Z,6.40
2023-01-06T13:29:00.218Z,6.57
2023-01-06T13:31:41.220Z,6.73
2023-01-06T13:34:39.458Z,7.80
2023-01-06T13:37:33.373Z,8.10
2023-01-06T13:40:27.106Z,7.80
2023-01-06T13:43:27.642Z,8.67
2023-01-06T13:45:58.870Z,8.63
2023-01-06T13:48:32.752Z,8.80
2023-01-06T13:51:02.626Z,9.03
2023-01-06T13:53:37.112Z,7.67
2023-01-06T13:56:13.010Z,8.40
2023-01-06T13:58:44.342Z,8.27
2023-01-06T14:01:11.485Z,8.23
2023-01-06T14:03:40.599Z,7.93
2023-01-06T14:06:27.851Z,8.33
2023-01-06T14:08:57.257Z,7.90
2023-01-06T14:11:30.241Z,7.40
2023-01-06T14:13:59.328Z,7.20
2023-01-06T14:16:40.179Z,7.47
2023-01-06T14:19:09.809Z,8.50
2023-01-06T14:21:36.812Z,8.57
2023-01-06T14:24:17.906Z,7.80
2023-01-06T14:26:50.538Z,7.57
2023-01-06T14:29:39.453Z,12.37
2023-01-06T14:32:19.158Z,14.50
2023-01-06T14:35:01.988Z,12.43
2023-01-06T14:37:35.793Z,20.57
2023-01-06T14:40:04.354Z,20.33
2023-01-06T14:42:38.967Z,33.20
2023-01-06T14:45:17.848Z,26.07
2023-01-06T14:47:48.139Z,14.70
2023-01-06T14:50:46.602Z,18.43
2023-01-06T14:53:44.220Z,37.60
2023-01-06T14:56:20.611Z,36.43
2023-01-06T14:58:47.596Z,25.43
2023-01-06T15:01:26.723Z,18.07
2023-01-06T15:03:58.247Z,42.07
2023-01-06T15:06:27.253Z,37.50
2023-01-06T15:08:57.679Z,22.60
2023-01-06T15:11:30.118Z,27.20
2023-01-06T15:13:57.271Z,22.57
2023-01-06T15:16:33.283Z,20.70
2023-01-06T15:19:01.090Z,13.77
2023-01-06T15:21:28.508Z,8.40
2023-01-06T15:23:55.758Z,9.47
2023-01-06T15:26:28.018Z,9.80
2023-01-06T15:28:58.485Z,19.93
2023-01-06T15:31:26.241Z,10.97
2023-01-06T15:33:54.369Z,7.43
2023-01-06T15:36:23.101Z,6.40
2023-01-06T15:38:50.413Z,8.10
2023-01-06T15:41:32.601Z,7.17
2023-01-06T15:44:18.410Z,7.60
2023-01-06T15:46:45.891Z,7.90
2023-01-06T15:49:33.763Z,7.80
2023-01-06T15:52:06.871Z,8.20
2023-01-06T15:54:36.017Z,9.87
2023-01-06T15:57:15.746Z,13.07
2023-01-06T15:59:55.614Z,17.03
2023-01-06T16:02:26.450Z,14.97
2023-01-06T16:04:54.502Z,10.70
2023-01-06T16:07:35.278Z,26.23
2023-01-06T16:10:02.722Z,16.67
2023-01-06T16:12:30.055Z,12.40
2023-01-06T16:14:56.997Z,18.47
2023-01-06T16:17:34.999Z,17.73
2023-01-06T16:20:23.503Z,21.37
2023-01-06T16:22:50.725Z,14.53
2023-01-06T16:25:26.693Z,12.63
2023-01-06T16:27:59.047Z,9.60
2023-01-06T16:30:30.075Z,15.57
2023-01-06T16:33:00.260Z,15.37
2023-01-06T16:35:32.576Z,18.97
2023-01-06T16:38:00.353Z,17.63
2023-01-06T16:40:29.010Z,44.90
2023-01-06T16:42:58.493Z,27.63
2023-01-06T16:45:33.042Z,17.00
2023-01-06T16:48:00.414Z,17.77
2023-01-06T16:50:30.973Z,11.93
2023-01-06T16:53:12.277Z,24.70
2023-01-06T16:55:40.347Z,61.23
2023-01-06T16:58:18.841Z,141.23
2023-01-06T17:00:54.569Z,119.50
2023-01-06T17:03:35.093Z,97.33
2023-01-06T17:06:02.426Z,58.07
2023-01-06T17:08:35.446Z,41.33
2023-01-06T17:11:11.276Z,52.50
2023-01-06T17:13:40.733Z,41.43
2023-01-06T17:16:10.790Z,24.17
2023-01-06T17:18:59.556Z,22.97
2023-01-06T17:21:33.799Z,32.20
2023-01-06T17:24:28.435Z,23.80
2023-01-06T17:26:58.300Z,23.43
2023-01-06T17:29:28.792Z,18.27
2023-01-06T17:31:57.466Z,23.93
2023-01-06T17:34:31.491Z,24.27
2023-01-06T17:37:03.113Z,18.83
2023-01-06T17:39:37.849Z,20.20
2023-01-06T17:42:12.522Z,20.97
2023-01-06T17:44:52.270Z,16.23
2023-01-06T17:47:20.149Z,17.17
2023-01-06T17:49:50.379Z,18.30
2023-01-06T17:52:19.955Z,15.20
2023-01-06T17:55:11.306Z,13.53
2023-01-06T17:57:41.189Z,14.13
2023-01-06T18:00:36.181Z,11.20
2023-01-06T18:03:09.918Z,15.63
2023-01-06T18:05:37.259Z,13.83
2023-01-06T18:08:07.298Z,21.87
2023-01-06T18:10:36.302Z,22.00
2023-01-06T18:13:19.023Z,15.03
2023-01-06T18:15:48.391Z,15.83
2023-01-06T18:18:22.960Z,15.70
2023-01-06T18:21:04.685Z,16.67
2023-01-06T18:23:33.575Z,14.80
2023-01-06T18:26:02.286Z,14.67
2023-01-06T18:28:29.804Z,14.43
2023-01-06T18:30:59.192Z,30.23
2023-01-06T18:33:26.482Z,24.63
2023-01-06T18:35:57.701Z,14.83
2023-01-06T18:38:26.614Z,71.13
2023-01-06T18:40:54.983Z,20.20
2023-01-06T18:43:28.011Z,15.33
2023-01-06T18:46:00.403Z,16.93
2023-01-06T18:48:27.690Z,16.20
2023-01-06T18:50:57.186Z,13.93
2023-01-06T18:53:39.433Z,13.87
2023-01-06T18:56:15.773Z,15.37
2023-01-06T18:58:50.173Z,12.13
2023-01-06T19:01:29.923Z,22.33
2023-01-06T19:04:05.294Z,17.63
2023-01-06T19:06:42.465Z,17.73
2023-01-06T19:09:18.648Z,54.03
2023-01-06T19:11:47.527Z,27.23
2023-01-06T19:14:19.238Z,15.07
2023-01-06T19:16:49.036Z,13.97
2023-01-06T19:19:26.865Z,13.90
2023-01-06T19:22:06.142Z,12.23
2023-01-06T19:24:38.901Z,10.23
2023-01-06T19:27:25.557Z,10.30
2023-01-06T19:29:54.889Z,13.10
2023-01-06T19:32:24.003Z,20.40
2023-01-06T19:34:51.447Z,15.50
2023-01-06T19:37:19.071Z,16.73
2023-01-06T19:39:50.933Z,15.97
2023-01-06T19:42:27.206Z,70.47
2023-01-06T19:44:57.850Z,22.13
2023-01-06T19:47:28.714Z,16.77
2023-01-06T19:50:00.023Z,19.57
2023-01-06T19:52:39.113Z,17.17
2023-01-06T19:55:30.024Z,15.63
2023-01-06T19:58:00.163Z,13.40
2023-01-06T20:00:50.404Z,12.97
2023-01-06T20:03:33.813Z,12.07
2023-01-06T20:06:01.238Z,19.77
2023-01-06T20:08:28.926Z,15.53
2023-01-06T20:10:56.181Z,44.80
2023-01-06T20:13:23.821Z,39.73
2023-01-06T20:15:51.313Z,15.77
2023-01-06T20:18:18.988Z,12.63
2023-01-06T20:20:46.190Z,14.27
2023-01-06T20:23:14.384Z,14.67
2023-01-06T20:25:41.780Z,12.37
2023-01-06T20:28:09.456Z,12.20
2023-01-06T20:30:36.865Z,12.77
2023-01-06T20:33:04.697Z,15.37
2023-01-06T20:35:31.933Z,12.40
2023-01-06T20:37:59.495Z,18.83
2023-01-06T20:40:26.865Z,43.80
2023-01-06T20:42:54.234Z,41.37
2023-01-06T20:45:21.567Z,22.57
2023-01-06T20:47:49.169Z,14.60
2023-01-06T20:50:16.430Z,12.43
2023-01-06T20:52:47.141Z,14.87
2023-01-06T20:55:14.796Z,12.17
2023-01-06T20:57:42.446Z,11.03
2023-01-06T21:00:11.085Z,11.43
2023-01-06T21:02:39.283Z,12.07
2023-01-06T21:05:07.217Z,13.13
2023-01-06T21:07:35.307Z,12.07
2023-01-06T21:10:02.648Z,30.67
2023-01-06T21:12:30.351Z,24.47
2023-01-06T21:14:57.804Z,13.53
2023-01-06T21:17:25.233Z,12.13
2023-01-06T21:19:52.494Z,12.60
2023-01-06T21:22:20.894Z,12.23
2023-01-06T21:24:48.157Z,11.67
2023-01-06T21:27:15.733Z,11.07
2023-01-06T21:29:43.247Z,11.63
2023-01-06T21:32:11.200Z,12.17
2023-01-06T21:34:39.129Z,13.60
2023-01-06T21:37:06.872Z,18.43
2023-01-06T21:39:34.082Z,21.03
2023-01-06T21:42:19.991Z,26.53
2023-01-06T21:44:47.257Z,13.30
2023-01-06T21:47:14.978Z,14.77
2023-01-06T21:49:44.466Z,14.93
2023-01-06T21:52:14.698Z,16.93
2023-01-06T21:54:43.169Z,13.57
2023-01-06T21:57:11.750Z,14.73
2023-01-06T21:59:39.119Z,13.63
2023-01-06T22:02:06.987Z,32.27
2023-01-06T22:04:34.253Z,22.47
2023-01-06T22:07:04.255Z,18.27
2023-01-06T22:09:31.409Z,15.27
2023-01-06T22:11:59.024Z,29.73
2023-01-06T22:14:26.196Z,32.20
2023-01-06T22:16:54.760Z,19.20
2023-01-06T22:19:21.856Z,12.33
2023-01-06T22:21:49.166Z,13.43
2023-01-06T22:24:17.286Z,12.03
2023-01-06T22:26:44.600Z,12.87
2023-01-06T22:29:11.652Z,12.47
2023-01-06T22:31:39.392Z,12.40
2023-01-06T22:34:07.496Z,17.40
2023-01-06T22:36:34.830Z,14.00
2023-01-06T22:39:02.014Z,17.93
2023-01-06T22:41:29.366Z,22.83
2023-01-06T22:43:56.373Z,14.43
2023-01-06T22:46:23.743Z,12.20
2023-01-06T22:48:50.858Z,12.27
2023-01-06T22:51:18.160Z,11.83
2023-01-06T22:53:45.107Z,10.83
2023-01-06T22:56:12.826Z,11.20
2023-01-06T22:58:41.014Z,12.83
2023-01-06T23:01:09.180Z,10.53
2023-01-06T23:03:36.818Z,14.10
2023-01-06T23:06:10.066Z,16.90
2023-01-06T23:08:42.833Z,17.10
2023-01-06T23:11:16.853Z,13.10
2023-01-06T23:13:44.983Z,12.57
2023-01-06T23:16:19.075Z,12.67
2023-01-06T23:18:47.421Z,12.47
2023-01-06T23:21:17.030Z,11.87
2023-01-06T23:23:45.149Z,12.40
2023-01-06T23:26:23.865Z,12.17
2023-01-06T23:28:51.808Z,23.20
2023-01-06T23:31:24.364Z,14.00
2023-01-06T23:33:53.475Z,14.73
2023-01-06T23:36:20.669Z,12.47
2023-01-06T23:38:47.934Z,12.53
2023-01-06T23:41:17.525Z,13.37
2023-01-06T23:43:44.803Z,13.27
2023-01-06T23:46:20.087Z,12.67
2023-01-06T23:48:48.879Z,13.47
2023-01-06T23:51:16.618Z,12.10
2023-01-06T23:53:44.391Z,13.20
2023-01-06T23:56:14.139Z,13.23
2023-01-06T23:58:42.507Z,13.93
